Time;durP1;ratioP1;P1;durP2;ratioP2;P2;SDS_P1;SDS_P2;PMS_P1;PMS_P2;Temp;Humidity;BMP_temperature;BMP_pressure;BME280_temperature;BME280_humidity;BME280_pressure;Samples;Min_cycle;Max_cycle;Signal;HPM_P1;HPM_P2
2021/01/12 00:01:57;;;;;;;159.23;60.93;;;-7.20;99.90;;;;;;4975684;28;20057;-78
2021/01/12 00:04:22;;;;;;;164.00;62.53;;;-7.20;99.90;;;;;;4976578;28;20039;-78
2021/01/12 00:06:51;;;;;;;174.30;61.90;;;-7.10;99.90;;;;;;4991603;28;20134;-79
2021/01/12 00:09:17;;;;;;;165.00;65.77;;;-7.10;99.90;;;;;;4976631;28;20042;-78
2021/01/12 00:11:42;;;;;;;178.00;69.87;;;-7.10;99.90;;;;;;4976389;28;20039;-78
2021/01/12 00:14:30;;;;;;;176.20;64.13;;;-7.10;99.90;;;;;;4976399;28;20053;-78
2021/01/12 00:16:54;;;;;;;174.67;68.13;;;-7.00;99.90;;;;;;4976259;28;20050;-78
2021/01/12 00:19:19;;;;;;;143.43;61.17;;;-7.00;99.90;;;;;;4991183;28;20054;-78
2021/01/12 00:21:45;;;;;;;169.60;64.20;;;-7.00;99.90;;;;;;4975023;28;20151;-78
2021/01/12 00:24:11;;;;;;;169.73;65.00;;;-7.00;99.90;;;;;;4990761;28;20467;-78
2021/01/12 00:26:36;;;;;;;174.73;65.73;;;-7.00;99.90;;;;;;4925360;28;20043;-78
2021/01/12 00:29:02;;;;;;;173.97;63.10;;;-7.00;99.90;;;;;;4987837;28;20019;-78
2021/01/12 00:31:28;;;;;;;154.90;58.43;;;-7.00;99.90;;;;;;4976017;28;20031;-78
2021/01/12 00:33:53;;;;;;;154.67;56.27;;;-7.00;99.90;;;;;;4990426;28;20050;-78
2021/01/12 00:36:19;;;;;;;144.03;53.73;;;-7.00;99.90;;;;;;4976085;28;20054;-79
2021/01/12 00:38:45;;;;;;;158.23;52.67;;;-7.00;99.90;;;;;;4975948;28;20019;-79
2021/01/12 00:41:10;;;;;;;154.82;54.03;;;-7.00;99.90;;;;;;4974721;28;20024;-78
2021/01/12 00:43:36;;;;;;;137.87;53.13;;;-7.00;99.90;;;;;;4969309;28;20034;-78
2021/01/12 00:46:02;;;;;;;142.57;50.23;;;-7.10;99.90;;;;;;4972412;28;20021;-78
2021/01/12 00:48:27;;;;;;;137.82;50.38;;;-7.10;99.90;;;;;;4975731;28;20026;-79
2021/01/12 00:50:53;;;;;;;136.37;50.53;;;-7.00;99.90;;;;;;4974268;28;20027;-78
2021/01/12 00:53:19;;;;;;;135.97;51.53;;;-7.00;99.90;;;;;;4974287;28;20081;-78
2021/01/12 00:55:44;;;;;;;124.50;48.90;;;-7.00;99.90;;;;;;4990252;28;20050;-79
2021/01/12 00:58:11;;;;;;;136.50;52.30;;;-7.00;99.90;;;;;;4974181;28;20026;-79
2021/01/12 01:00:36;;;;;;;138.97;49.10;;;-6.90;99.90;;;;;;4973322;28;20551;-79
2021/01/12 01:03:02;;;;;;;123.23;46.13;;;-6.90;99.90;;;;;;4974796;28;20109;-79
2021/01/12 01:05:28;;;;;;;135.37;49.83;;;-6.90;99.90;;;;;;4987530;28;20480;-79
2021/01/12 01:07:53;;;;;;;117.07;48.43;;;-6.90;99.90;;;;;;4989886;28;20019;-78
2021/01/12 01:10:19;;;;;;;130.77;46.63;;;-6.90;99.90;;;;;;4974900;28;20053;-79
2021/01/12 01:12:49;;;;;;;113.00;45.83;;;-6.90;99.90;;;;;;4974889;28;20019;-79
2021/01/12 01:15:15;;;;;;;121.73;45.40;;;-6.90;99.90;;;;;;4986631;28;20031;-78
2021/01/12 01:17:40;;;;;;;117.23;46.17;;;-6.90;99.90;;;;;;4973842;28;20389;-78
2021/01/12 01:20:10;;;;;;;121.77;43.87;;;-6.90;99.90;;;;;;4973049;28;20054;-77
2021/01/12 01:22:35;;;;;;;107.77;40.77;;;-6.90;99.90;;;;;;4990044;28;20070;-77
2021/01/12 01:25:01;;;;;;;108.22;41.83;;;-6.90;99.90;;;;;;4991457;28;20030;-77
2021/01/12 01:27:27;;;;;;;106.50;39.00;;;-6.90;99.90;;;;;;4975012;28;20053;-77
2021/01/12 01:29:52;;;;;;;108.67;39.53;;;-6.90;99.90;;;;;;4975028;28;20023;-76
2021/01/12 01:32:18;;;;;;;107.60;42.50;;;-6.90;99.90;;;;;;4989880;28;20432;-76
2021/01/12 01:34:43;;;;;;;119.43;42.67;;;-6.90;99.90;;;;;;4973654;28;20031;-77
2021/01/12 01:37:09;;;;;;;107.57;40.33;;;-6.90;99.90;;;;;;4974938;28;20023;-78
2021/01/12 01:39:35;;;;;;;103.37;40.33;;;-6.90;99.90;;;;;;4989789;28;20021;-76
2021/01/12 01:42:02;;;;;;;102.47;38.70;;;-6.90;99.90;;;;;;4973533;28;20388;-76
2021/01/12 01:44:28;;;;;;;100.45;36.38;;;-7.00;99.90;;;;;;4973311;28;20030;-76
2021/01/12 01:46:54;;;;;;;102.80;36.53;;;-7.00;99.90;;;;;;4974498;28;20050;-77
2021/01/12 01:49:20;;;;;;;95.67;38.73;;;-6.90;99.90;;;;;;4974397;28;20106;-77
2021/01/12 01:51:47;;;;;;;91.30;35.87;;;-6.90;99.90;;;;;;4974456;28;20125;-77
2021/01/12 01:54:13;;;;;;;94.57;35.70;;;-6.90;99.90;;;;;;4971909;28;20390;-76
2021/01/12 01:56:39;;;;;;;95.27;36.17;;;-6.90;99.90;;;;;;4974420;28;20033;-77
2021/01/12 01:59:05;;;;;;;90.67;35.67;;;-6.90;99.90;;;;;;4973265;28;20395;-77
2021/01/12 02:01:32;;;;;;;83.90;32.80;;;-6.90;99.90;;;;;;4973279;28;20037;-77
2021/01/12 02:04:19;;;;;;;85.95;33.45;;;-6.90;99.90;;;;;;4989326;28;20369;-77
2021/01/12 02:06:47;;;;;;;95.90;34.70;;;-6.80;99.90;;;;;;4969715;28;20027;-77
2021/01/12 02:09:30;;;;;;;81.50;32.10;;;-6.80;99.90;;;;;;4969773;28;20508;-77
2021/01/12 02:12:01;;;;;;;77.53;32.08;;;-6.80;99.90;;;;;;4955065;28;20082;-78
2021/01/12 02:14:29;;;;;;;70.38;28.75;;;-6.70;99.90;;;;;;4965457;28;20491;-77
2021/01/12 02:16:57;;;;;;;79.72;32.20;;;-6.70;99.90;;;;;;4969760;28;20024;-78
2021/01/12 02:19:26;;;;;;;75.22;28.05;;;-6.70;99.90;;;;;;4954890;28;20039;-78
2021/01/12 02:21:58;;;;;;;61.05;26.08;;;-6.70;99.90;;;;;;4954828;28;20027;-78
2021/01/12 02:24:23;;;;;;;70.95;27.23;;;-6.70;99.90;;;;;;4954944;28;20026;-78
2021/01/12 02:26:49;;;;;;;72.28;27.48;;;-6.60;99.90;;;;;;4969814;28;20031;-78
2021/01/12 02:29:15;;;;;;;51.75;23.92;;;-6.60;99.90;;;;;;4954848;28;20023;-78
2021/01/12 02:31:40;;;;;;;49.25;19.33;;;-6.50;99.90;;;;;;4954828;28;20039;-78
2021/01/12 02:34:15;;;;;;;58.10;22.80;;;-6.50;99.90;;;;;;4954848;28;20399;-78
2021/01/12 02:36:41;;;;;;;50.08;21.55;;;-6.40;99.90;;;;;;4984081;28;20448;-78
2021/01/12 02:39:10;;;;;;;59.30;20.75;;;-6.30;99.90;;;;;;4974042;28;20031;-78
2021/01/12 02:41:36;;;;;;;51.72;20.17;;;-6.30;99.90;;;;;;4972819;28;20023;-78
2021/01/12 02:44:02;;;;;;;51.83;22.23;;;-6.30;99.90;;;;;;4973947;28;20027;-78
2021/01/12 02:46:28;;;;;;;49.30;20.70;;;-6.30;99.90;;;;;;4974025;28;20022;-78
2021/01/12 02:48:54;;;;;;;39.78;18.95;;;-6.20;99.90;;;;;;4973907;28;20027;-77
2021/01/12 02:51:19;;;;;;;61.38;23.33;;;-6.30;99.90;;;;;;4973852;28;20097;-78
2021/01/12 02:53:45;;;;;;;56.95;21.10;;;-6.30;99.90;;;;;;4972309;28;20035;-78
2021/01/12 02:56:10;;;;;;;44.55;21.40;;;-6.30;99.90;;;;;;4972034;28;20019;-78
2021/01/12 02:58:36;;;;;;;47.13;19.15;;;-6.30;99.90;;;;;;4973936;28;20027;-78
2021/01/12 03:01:03;;;;;;;43.80;17.45;;;-6.30;99.90;;;;;;4972602;28;20019;-78
2021/01/12 03:03:28;;;;;;;50.90;20.90;;;-6.30;99.90;;;;;;4972615;28;20018;-78
2021/01/12 03:05:54;;;;;;;56.35;18.98;;;-6.30;99.90;;;;;;4973877;28;20166;-78
2021/01/12 03:08:20;;;;;;;50.63;19.38;;;-6.30;99.90;;;;;;4975446;28;20030;-77
2021/01/12 03:10:46;;;;;;;47.17;18.65;;;-6.30;99.90;;;;;;4977247;28;20492;-77
2021/01/12 03:13:12;;;;;;;47.72;19.65;;;-6.30;99.90;;;;;;4977522;28;20023;-77
2021/01/12 03:15:38;;;;;;;43.20;18.23;;;-6.40;99.90;;;;;;4977520;28;20026;-77
2021/01/12 03:18:05;;;;;;;48.97;19.30;;;-6.40;99.90;;;;;;4992016;28;20022;-77
2021/01/12 03:20:32;;;;;;;40.90;16.88;;;-6.30;99.90;;;;;;4977550;28;20022;-77
2021/01/12 03:22:57;;;;;;;42.85;17.13;;;-6.40;99.90;;;;;;4977339;28;20041;-77
2021/01/12 03:25:23;;;;;;;41.65;16.23;;;-6.40;99.90;;;;;;4992133;28;20019;-77
2021/01/12 03:27:49;;;;;;;47.05;20.00;;;-6.40;99.90;;;;;;4977239;28;20115;-77
2021/01/12 03:30:16;;;;;;;53.92;20.35;;;-6.40;99.90;;;;;;4975873;28;20492;-77
2021/01/12 03:32:42;;;;;;;45.67;17.35;;;-6.30;99.90;;;;;;4975633;28;20031;-77
2021/01/12 03:35:08;;;;;;;42.95;18.23;;;-6.30;99.90;;;;;;4977214;28;20039;-77
2021/01/12 03:37:34;;;;;;;42.58;19.25;;;-6.40;99.90;;;;;;4975831;28;20507;-78
2021/01/12 03:40:00;;;;;;;385.20;125.45;;;-6.40;99.90;;;;;;4976974;28;20070;-77
2021/01/12 03:42:26;;;;;;;347.15;107.70;;;-6.30;99.90;;;;;;4976998;28;20105;-78
2021/01/12 03:44:51;;;;;;;318.95;105.85;;;-6.40;99.90;;;;;;4991870;28;20473;-77
2021/01/12 03:47:17;;;;;;;408.73;139.93;;;-6.30;99.90;;;;;;4975729;28;20015;-77
2021/01/12 03:49:43;;;;;;;194.65;64.40;;;-6.30;99.90;;;;;;4976855;28;20057;-77
2021/01/12 03:52:08;;;;;;;85.28;32.83;;;-6.30;99.90;;;;;;4976536;28;20034;-77
2021/01/12 03:54:34;;;;;;;72.17;26.37;;;-6.30;99.90;;;;;;4991699;28;20389;-76
2021/01/12 03:57:00;;;;;;;49.90;23.98;;;-6.30;99.90;;;;;;4975521;28;20042;-76
2021/01/12 03:59:25;;;;;;;69.25;25.38;;;-6.30;99.90;;;;;;4976536;28;20035;-76
2021/01/12 04:01:51;;;;;;;68.55;26.02;;;-6.30;99.90;;;;;;4991603;28;20509;-76
2021/01/12 04:04:16;;;;;;;56.78;23.48;;;-6.30;99.90;;;;;;4976626;28;20115;-77
2021/01/12 04:06:42;;;;;;;56.63;22.40;;;-6.30;99.90;;;;;;4976679;28;20018;-77
2021/01/12 04:09:08;;;;;;;61.72;26.40;;;-6.30;99.90;;;;;;4976583;28;20366;-77
2021/01/12 04:11:36;;;;;;;74.93;27.40;;;-6.30;99.90;;;;;;4975251;28;20041;-78
2021/01/12 04:14:03;;;;;;;87.82;29.85;;;-6.30;99.90;;;;;;4976417;28;20473;-77
2021/01/12 04:16:28;;;;;;;473.88;150.45;;;-6.40;99.90;;;;;;4991441;28;20062;-77
2021/01/12 04:18:54;;;;;;;1009.08;392.38;;;-6.40;99.90;;;;;;4990454;28;20073;-77
2021/01/12 04:21:20;;;;;;;839.70;311.33;;;-6.40;99.90;;;;;;4975382;28;20476;-77
2021/01/12 04:23:45;;;;;;;454.10;135.55;;;-6.40;99.90;;;;;;4990770;28;20027;-76
2021/01/12 04:26:11;;;;;;;451.43;126.40;;;-6.40;99.90;;;;;;4975008;28;20023;-77
2021/01/12 04:28:37;;;;;;;545.20;149.73;;;-6.40;99.90;;;;;;4976148;28;20074;-76
2021/01/12 04:31:03;;;;;;;1239.53;441.53;;;-6.40;99.90;;;;;;4975053;28;20081;-78
2021/01/12 04:33:29;;;;;;;309.58;94.32;;;-6.50;99.90;;;;;;4976155;28;20490;-77
2021/01/12 04:35:54;;;;;;;559.37;141.73;;;-6.50;99.90;;;;;;4991064;28;20027;-77
2021/01/12 04:38:20;;;;;;;167.97;50.40;;;-6.50;99.90;;;;;;4981821;28;20054;-77
2021/01/12 04:40:46;;;;;;;135.85;40.67;;;-6.50;99.90;;;;;;4994370;28;20053;-77
2021/01/12 04:43:12;;;;;;;114.72;37.80;;;-6.60;99.90;;;;;;4993084;28;20033;-77
2021/01/12 04:45:38;;;;;;;228.80;68.05;;;-6.60;99.90;;;;;;4992410;28;20014;-78
2021/01/12 04:48:05;;;;;;;429.20;109.03;;;-6.60;99.90;;;;;;4994783;28;20026;-78
2021/01/12 04:50:31;;;;;;;594.65;159.07;;;-6.60;99.90;;;;;;4990804;28;20401;-78
2021/01/12 04:52:56;;;;;;;445.27;110.13;;;-6.60;99.90;;;;;;4974065;28;20037;-78
2021/01/12 04:55:22;;;;;;;1715.57;565.33;;;-6.60;99.90;;;;;;4972685;28;20031;-78
2021/01/12 04:57:49;;;;;;;755.53;228.13;;;-6.70;99.90;;;;;;4973653;28;20023;-77
2021/01/12 05:00:17;;;;;;;501.97;125.70;;;-6.70;99.90;;;;;;4973962;28;20510;-78
2021/01/12 05:02:54;;;;;;;320.02;82.00;;;-6.70;99.90;;;;;;4973749;28;20054;-77
2021/01/12 05:05:20;;;;;;;430.10;124.33;;;-6.70;99.90;;;;;;4990111;28;20109;-78
2021/01/12 05:07:45;;;;;;;789.57;272.93;;;-6.70;99.90;;;;;;4973482;28;20026;-77
2021/01/12 05:10:12;;;;;;;791.47;257.37;;;-6.70;99.90;;;;;;4990033;28;20457;-78
2021/01/12 05:12:40;;;;;;;266.07;71.67;;;-6.70;99.90;;;;;;4989986;28;20062;-78
2021/01/12 05:15:08;;;;;;;231.70;66.05;;;-6.80;99.90;;;;;;4973058;28;20033;-78
2021/01/12 05:17:36;;;;;;;416.50;123.20;;;-6.80;99.90;;;;;;4973814;28;20065;-78
2021/01/12 05:20:03;;;;;;;618.17;202.47;;;-6.80;99.90;;;;;;4974800;28;20019;-78
2021/01/12 05:22:39;;;;;;;356.10;92.63;;;-6.80;99.90;;;;;;4974166;28;20023;-78
2021/01/12 05:25:19;;;;;;;190.47;53.93;;;-6.80;99.90;;;;;;4975185;28;20027;-77
2021/01/12 05:27:51;;;;;;;183.60;54.17;;;-6.70;99.90;;;;;;4973826;28;20074;-77
2021/01/12 05:30:25;;;;;;;555.30;179.93;;;-6.70;99.90;;;;;;4974781;28;20045;-77
2021/01/12 05:32:53;;;;;;;361.67;101.77;;;-6.70;99.90;;;;;;4975055;28;20041;-77
2021/01/12 05:35:18;;;;;;;188.70;51.77;;;-6.70;99.90;;;;;;4974971;28;20388;-77
2021/01/12 05:37:44;;;;;;;176.27;51.50;;;-6.70;99.90;;;;;;4989772;28;20074;-77
2021/01/12 05:40:10;;;;;;;332.23;108.27;;;-6.70;99.90;;;;;;4996660;28;20068;-77
2021/01/12 05:42:39;;;;;;;722.17;276.70;;;-6.70;99.90;;;;;;4994311;28;20092;-77
2021/01/12 05:45:08;;;;;;;289.50;82.97;;;-6.70;99.90;;;;;;4991562;28;20105;-76
2021/01/12 05:47:34;;;;;;;174.90;53.57;;;-6.70;99.90;;;;;;4974800;28;20011;-77
2021/01/12 05:50:00;;;;;;;158.57;50.47;;;-6.70;99.90;;;;;;4974566;28;20109;-77
2021/01/12 05:52:26;;;;;;;145.87;51.17;;;-6.70;99.90;;;;;;4974526;28;20030;-77
2021/01/12 05:55:11;;;;;;;248.50;83.53;;;-6.70;99.90;;;;;;4989534;28;20080;-77
2021/01/12 05:57:39;;;;;;;135.30;45.90;;;-6.70;99.90;;;;;;4974406;28;20035;-78
2021/01/12 06:00:05;;;;;;;120.27;44.00;;;-6.70;99.90;;;;;;4974512;28;20019;-78
2021/01/12 06:02:33;;;;;;;115.07;38.77;;;-6.70;99.90;;;;;;4972301;28;20026;-78
2021/01/12 06:04:59;;;;;;;151.45;59.97;;;-6.70;99.90;;;;;;4974200;28;20058;-78
2021/01/12 06:07:27;;;;;;;455.97;161.13;;;-6.70;99.90;;;;;;4974487;28;20026;-77
2021/01/12 06:09:55;;;;;;;276.40;82.77;;;-6.70;99.90;;;;;;4974692;28;20034;-77
2021/01/12 06:12:25;;;;;;;172.43;50.13;;;-6.70;99.90;;;;;;4974278;28;20552;-77
2021/01/12 06:14:54;;;;;;;172.07;60.90;;;-6.60;99.90;;;;;;4974280;28;20175;-77
2021/01/12 06:17:20;;;;;;;143.80;53.73;;;-6.70;99.90;;;;;;4974183;28;20035;-77
2021/01/12 06:19:47;;;;;;;134.50;46.97;;;-6.70;99.90;;;;;;4974146;28;20563;-77
2021/01/12 06:22:23;;;;;;;108.70;43.90;;;-6.70;99.90;;;;;;4969387;28;20015;-78
2021/01/12 06:25:00;;;;;;;188.17;72.93;;;-6.60;99.90;;;;;;4976794;28;20038;-76
2021/01/12 06:27:28;;;;;;;130.10;44.93;;;-6.60;99.90;;;;;;4981487;28;20037;-76
2021/01/12 06:30:06;;;;;;;114.07;42.10;;;-6.60;99.90;;;;;;4952975;28;20029;-77
2021/01/12 06:32:33;;;;;;;93.50;35.87;;;-6.60;99.90;;;;;;4952794;28;20038;-78
2021/01/12 06:35:05;;;;;;;80.70;32.67;;;-6.60;99.90;;;;;;4953009;28;20031;-77
2021/01/12 06:37:38;;;;;;;91.15;35.67;;;-6.60;99.90;;;;;;4954501;28;20393;-77
2021/01/12 06:40:07;;;;;;;77.70;31.13;;;-6.60;99.90;;;;;;4954029;28;20051;-77
2021/01/12 06:42:34;;;;;;;81.57;32.33;;;-6.60;99.90;;;;;;4954012;28;20438;-76
2021/01/12 06:45:00;;;;;;;98.60;35.00;;;-6.60;99.90;;;;;;4959534;28;20031;-77
2021/01/12 06:47:28;;;;;;;116.37;47.30;;;-6.60;99.90;;;;;;4958717;28;20058;-76
2021/01/12 06:50:06;;;;;;;164.30;62.47;;;-6.50;99.90;;;;;;4957257;28;20023;-76
2021/01/12 06:52:47;;;;;;;133.27;51.63;;;-6.50;99.90;;;;;;4958490;28;20039;-77
2021/01/12 06:55:15;;;;;;;105.27;43.83;;;-6.50;99.90;;;;;;4957311;28;20524;-76
2021/01/12 06:57:45;;;;;;;93.77;36.80;;;-6.50;99.90;;;;;;4963907;28;20038;-76
2021/01/12 07:00:11;;;;;;;116.20;46.60;;;-6.50;99.90;;;;;;4977830;28;20542;-76
2021/01/12 07:02:37;;;;;;;100.93;39.47;;;-6.50;99.90;;;;;;4975824;28;20515;-77
2021/01/12 07:05:06;;;;;;;88.67;32.87;;;-6.50;99.90;;;;;;4992765;28;20023;-77
2021/01/12 07:07:35;;;;;;;75.50;31.43;;;-6.50;99.90;;;;;;4977681;28;20046;-76
2021/01/12 07:10:10;;;;;;;85.23;35.43;;;-6.50;99.90;;;;;;4977076;28;20048;-76
2021/01/12 07:12:36;;;;;;;118.43;43.70;;;-6.50;99.90;;;;;;4977622;28;20041;-76
2021/01/12 07:15:14;;;;;;;85.03;33.63;;;-6.40;99.90;;;;;;4977484;28;20014;-76
2021/01/12 07:17:49;;;;;;;69.13;28.57;;;-6.40;99.90;;;;;;4958215;28;20052;-77
2021/01/12 07:20:15;;;;;;;89.30;33.23;;;-6.40;99.90;;;;;;5006771;28;20098;-76
2021/01/12 07:22:53;;;;;;;98.00;43.23;;;-6.30;99.90;;;;;;5011116;28;20030;-76
2021/01/12 07:25:31;;;;;;;85.95;33.95;;;-6.30;99.90;;;;;;5015016;28;20079;-76
2021/01/12 07:28:08;;;;;;;84.70;30.97;;;-6.20;99.90;;;;;;5016049;28;20042;-76
2021/01/12 07:30:36;;;;;;;76.90;30.60;;;-6.10;99.90;;;;;;4975881;28;20038;-76
2021/01/12 07:33:07;;;;;;;73.10;30.50;;;-6.10;99.90;;;;;;4977109;28;20396;-76
2021/01/12 07:35:34;;;;;;;90.93;35.17;;;-6.00;99.90;;;;;;5009014;28;20022;-76
2021/01/12 07:38:00;;;;;;;67.47;28.77;;;-5.90;99.90;;;;;;5009346;28;20022;-76
2021/01/12 07:40:26;;;;;;;70.25;29.27;;;-5.90;99.90;;;;;;4993029;28;20053;-77
2021/01/12 07:42:56;;;;;;;66.85;31.35;;;-5.80;99.90;;;;;;4993895;28;20030;-76
2021/01/12 07:45:27;;;;;;;88.88;36.63;;;-5.70;99.90;;;;;;4996278;28;20044;-76
2021/01/12 07:47:55;;;;;;;81.07;31.90;;;-5.50;99.90;;;;;;4994874;28;20514;-76
2021/01/12 07:50:23;;;;;;;70.13;28.67;;;-5.40;99.90;;;;;;4994845;28;20037;-76
2021/01/12 07:52:49;;;;;;;61.20;28.23;;;-5.30;99.90;;;;;;4996159;28;20034;-76
2021/01/12 07:55:15;;;;;;;67.27;28.00;;;-5.10;99.90;;;;;;4994312;28;20395;-74
2021/01/12 07:57:41;;;;;;;77.47;29.48;;;-5.00;99.90;;;;;;4990156;28;20027;-74
2021/01/12 08:00:13;;;;;;;71.80;30.93;;;-4.80;99.90;;;;;;4975568;28;20171;-74
2021/01/12 08:02:42;;;;;;;66.00;28.75;;;-4.70;99.90;;;;;;4976863;28;20026;-74
2021/01/12 08:05:09;;;;;;;66.43;27.20;;;-4.50;99.90;;;;;;4986458;28;20116;-74
2021/01/12 08:07:36;;;;;;;91.85;38.38;;;-4.30;99.90;;;;;;5009123;28;20472;-74
2021/01/12 08:10:02;;;;;;;61.90;27.83;;;-4.20;99.90;;;;;;4994709;28;20450;-74
2021/01/12 08:12:28;;;;;;;61.00;26.52;;;-4.00;99.90;;;;;;4993992;28;20109;-74
2021/01/12 08:14:54;;;;;;;56.25;26.08;;;-3.90;99.90;;;;;;4994720;28;20110;-74
2021/01/12 08:17:28;;;;;;;57.03;25.35;;;-3.80;99.90;;;;;;4999339;28;20394;-76
2021/01/12 08:19:56;;;;;;;69.57;30.42;;;-3.60;98.80;;;;;;4974772;28;20384;-80
2021/01/12 08:22:22;;;;;;;64.97;26.50;;;-3.50;99.90;;;;;;4975769;28;20062;-77
2021/01/12 08:24:48;;;;;;;54.97;25.52;;;-3.30;99.90;;;;;;4975664;28;20121;-77
2021/01/12 08:27:21;;;;;;;53.58;24.95;;;-3.10;99.90;;;;;;4976290;28;20026;-78
2021/01/12 08:29:47;;;;;;;;;;;-3.00;96.50;;;;;;4976033;28;20100;-79
2021/01/12 08:32:17;;;;;;;54.08;22.25;;;-3.00;92.30;;;;;;4975498;28;20336;-77
2021/01/12 08:35:02;;;;;;;62.42;28.08;;;-2.80;91.70;;;;;;4973861;28;20409;-78
2021/01/12 08:37:29;;;;;;;51.30;20.27;;;-2.60;91.80;;;;;;4975065;28;20026;-78
2021/01/12 08:39:58;;;;;;;45.30;21.33;;;-2.50;88.90;;;;;;5001469;28;20061;-77
2021/01/12 08:42:25;;;;;;;50.92;24.30;;;-2.40;88.90;;;;;;4995200;28;20018;-77
2021/01/12 08:44:51;;;;;;;50.20;21.27;;;-2.30;89.50;;;;;;4996150;28;20031;-77
2021/01/12 08:47:25;;;;;;;41.58;19.10;;;-2.20;86.60;;;;;;5005389;28;20479;-77
2021/01/12 08:50:01;;;;;;;46.00;22.95;;;-2.10;82.50;;;;;;4993469;28;20042;-77
2021/01/12 08:52:27;;;;;;;37.65;18.48;;;-2.00;82.90;;;;;;4972557;28;20043;-77
2021/01/12 08:54:53;;;;;;;49.38;20.63;;;-2.00;81.20;;;;;;4971254;28;20476;-77
2021/01/12 08:57:18;;;;;;;34.65;17.70;;;-1.90;82.20;;;;;;4971205;28;20042;-77
2021/01/12 08:59:44;;;;;;;40.80;17.80;;;-1.90;81.20;;;;;;4972586;28;20477;-78
2021/01/12 09:02:18;;;;;;;35.33;17.55;;;-1.70;80.70;;;;;;4988550;28;20062;-77
2021/01/12 09:04:44;;;;;;;49.30;21.45;;;-1.70;78.80;;;;;;4974088;28;20069;-77
2021/01/12 09:07:09;;;;;;;36.88;18.27;;;-1.70;80.30;;;;;;4973178;28;20031;-77
2021/01/12 09:09:35;;;;;;;40.85;20.25;;;-1.70;81.20;;;;;;4975671;28;20464;-78
2021/01/12 09:12:03;;;;;;;52.97;23.95;;;-1.60;80.10;;;;;;4975267;28;20034;-80
2021/01/12 09:14:30;;;;;;;41.22;19.17;;;-1.50;81.80;;;;;;4990267;28;20031;-78
2021/01/12 09:17:02;;;;;;;35.17;15.93;;;-1.50;78.90;;;;;;4974122;28;20034;-78
2021/01/12 09:19:39;;;;;;;38.05;17.92;;;-1.50;79.10;;;;;;4973953;28;20380;-78
2021/01/12 09:22:10;;;;;;;34.13;14.45;;;-1.60;76.90;;;;;;4975394;28;20023;-78
2021/01/12 09:24:39;;;;;;;39.95;16.55;;;-1.60;78.00;;;;;;4992913;28;20097;-80
2021/01/12 09:27:05;;;;;;;33.35;16.88;;;-1.60;78.50;;;;;;5012680;28;20403;-78
2021/01/12 09:29:38;;;;;;;36.58;17.70;;;-1.70;76.00;;;;;;5011939;28;20025;-78
2021/01/12 09:32:04;;;;;;;41.00;16.30;;;-1.60;77.70;;;;;;5013927;28;20053;-77
2021/01/12 09:34:30;;;;;;;33.33;15.63;;;-1.60;76.80;;;;;;5004546;28;20030;-78
2021/01/12 09:36:55;;;;;;;39.10;17.92;;;-1.60;78.00;;;;;;4973819;28;20041;-78
2021/01/12 09:39:25;;;;;;;36.85;15.85;;;-1.60;77.90;;;;;;4975961;28;20039;-78
2021/01/12 09:41:53;;;;;;;37.63;17.70;;;-1.60;78.20;;;;;;4974865;28;20511;-78
2021/01/12 09:44:18;;;;;;;40.33;17.52;;;-1.60;78.00;;;;;;4974780;28;20073;-78
2021/01/12 09:46:44;;;;;;;36.83;17.98;;;-1.50;78.00;;;;;;4974875;28;20055;-78
2021/01/12 09:49:10;;;;;;;44.25;17.80;;;-1.50;77.40;;;;;;4973483;28;20491;-77
2021/01/12 09:51:35;;;;;;;38.40;16.23;;;-1.40;79.40;;;;;;4974950;28;20031;-79
2021/01/12 09:54:01;;;;;;;37.10;17.70;;;-1.30;78.40;;;;;;4980366;28;20039;-78
2021/01/12 09:56:26;;;;;;;48.22;18.70;;;-1.30;77.70;;;;;;5011312;28;20041;-78
2021/01/12 09:58:52;;;;;;;44.58;18.23;;;-1.20;76.70;;;;;;5013625;28;20422;-78
2021/01/12 10:01:19;;;;;;;36.78;16.85;;;-1.20;78.10;;;;;;5012333;28;20169;-78
2021/01/12 10:03:46;;;;;;;40.17;16.30;;;-1.10;75.80;;;;;;4997864;28;20096;-78
2021/01/12 10:06:21;;;;;;;44.75;19.23;;;-1.10;75.20;;;;;;4993227;28;20025;-78
2021/01/12 10:08:47;;;;;;;35.75;17.33;;;-1.00;76.60;;;;;;4989589;28;20034;-78
2021/01/12 10:11:14;;;;;;;43.45;19.42;;;-1.00;76.60;;;;;;4991110;28;20034;-78
2021/01/12 10:13:40;;;;;;;41.58;16.65;;;-1.00;76.40;;;;;;4991275;28;20509;-78
2021/01/12 10:16:05;;;;;;;41.28;19.30;;;-1.00;76.80;;;;;;4989897;28;20022;-78
2021/01/12 10:18:31;;;;;;;41.10;18.10;;;-1.00;76.20;;;;;;4992539;28;20041;-78
2021/01/12 10:20:58;;;;;;;47.75;19.70;;;-0.90;76.10;;;;;;4992325;28;20447;-78
2021/01/12 10:23:23;;;;;;;42.85;19.67;;;-0.90;75.40;;;;;;4980833;28;20027;-78
2021/01/12 10:25:49;;;;;;;42.83;20.17;;;-0.90;75.30;;;;;;4972733;28;20133;-78
2021/01/12 10:28:15;;;;;;;41.50;18.60;;;-0.90;76.60;;;;;;4991466;28;20088;-78
2021/01/12 10:30:41;;;;;;;46.53;19.13;;;-0.80;76.80;;;;;;5001700;28;20056;-78
2021/01/12 10:33:07;;;;;;;40.03;18.30;;;-0.90;76.50;;;;;;5005182;28;20057;-78
2021/01/12 10:35:32;;;;;;;49.47;20.83;;;-0.80;76.80;;;;;;5001550;28;20747;-78
2021/01/12 10:37:58;;;;;;;40.67;18.25;;;-0.80;74.80;;;;;;5002331;28;20073;-78
2021/01/12 10:40:24;;;;;;;35.60;18.13;;;-0.80;75.40;;;;;;4993118;28;20023;-78
2021/01/12 10:42:51;;;;;;;38.10;18.17;;;-0.90;74.90;;;;;;5007113;28;20023;-78
2021/01/12 10:45:17;;;;;;;41.38;18.15;;;-0.80;75.20;;;;;;4989881;28;20029;-79
2021/01/12 10:47:45;;;;;;;45.50;18.45;;;-0.80;75.60;;;;;;5007073;28;20030;-78
2021/01/12 10:50:16;;;;;;;41.97;20.63;;;-0.80;76.30;;;;;;4989998;28;20025;-78
2021/01/12 10:52:42;;;;;;;41.72;17.88;;;-0.70;73.90;;;;;;4986457;28;20420;-78
2021/01/12 10:55:09;;;;;;;36.10;16.67;;;-0.60;74.10;;;;;;4990682;28;20133;-79
2021/01/12 10:57:35;;;;;;;37.65;16.73;;;-0.60;74.00;;;;;;4992202;28;20069;-78
2021/01/12 11:00:01;;;;;;;29.23;14.52;;;-0.50;74.50;;;;;;4989866;28;20511;-79
2021/01/12 11:02:34;;;;;;;28.10;13.82;;;-0.40;72.50;;;;;;4992488;28;20046;-79
2021/01/12 11:04:59;;;;;;;34.53;15.18;;;-0.30;73.30;;;;;;4992990;28;20026;-79
2021/01/12 11:07:25;;;;;;;21.30;10.90;;;-0.30;72.30;;;;;;4991543;28;20076;-79
2021/01/12 11:09:51;;;;;;;23.60;10.90;;;-0.20;71.40;;;;;;4990522;28;20038;-79
2021/01/12 11:12:18;;;;;;;24.52;13.48;;;0.00;71.60;;;;;;4989839;28;20399;-79
2021/01/12 11:14:45;;;;;;;25.50;11.40;;;0.10;73.30;;;;;;4990475;28;20030;-79
2021/01/12 11:17:14;;;;;;;20.27;10.70;;;0.10;72.30;;;;;;5006610;28;20018;-78
2021/01/12 11:19:42;;;;;;;22.42;10.27;;;0.10;71.80;;;;;;4991916;28;20019;-78
2021/01/12 11:22:08;;;;;;;23.58;9.43;;;0.20;73.30;;;;;;4991050;28;20088;-78
2021/01/12 11:24:34;;;;;;;19.88;9.55;;;0.10;71.90;;;;;;4990340;28;20030;-78
2021/01/12 11:27:03;;;;;;;23.90;10.85;;;0.20;71.60;;;;;;5004686;28;20109;-79
2021/01/12 11:29:29;;;;;;;26.73;11.60;;;0.20;72.30;;;;;;4984321;28;20019;-78
2021/01/12 11:31:57;;;;;;;21.13;10.25;;;0.20;71.00;;;;;;4994826;28;20042;-78
2021/01/12 11:34:23;;;;;;;21.08;10.93;;;0.20;72.20;;;;;;4993896;28;20034;-79
2021/01/12 11:36:48;;;;;;;18.15;9.15;;;0.20;72.70;;;;;;5009087;28;20029;-78
2021/01/12 11:39:16;;;;;;;18.85;9.02;;;0.20;72.30;;;;;;5012610;28;20049;-78
2021/01/12 11:41:50;;;;;;;22.23;10.57;;;0.30;71.90;;;;;;5013972;28;20021;-78
2021/01/12 11:44:18;;;;;;;22.30;11.35;;;0.30;71.20;;;;;;5005686;28;20384;-79
2021/01/12 11:46:44;;;;;;;19.33;10.00;;;0.30;73.50;;;;;;4995799;28;20030;-78
2021/01/12 11:49:10;;;;;;;25.77;10.02;;;0.30;73.60;;;;;;5010089;28;20030;-78
2021/01/12 11:51:55;;;;;;;21.27;9.98;;;0.30;72.20;;;;;;4994315;28;20503;-78
2021/01/12 11:54:20;;;;;;;21.85;10.55;;;0.30;72.80;;;;;;5014529;28;20049;-79
2021/01/12 11:56:56;;;;;;;23.85;10.98;;;0.30;72.30;;;;;;4991899;28;20061;-79
2021/01/12 11:59:24;;;;;;;22.67;10.00;;;0.30;73.30;;;;;;5013906;28;20483;-79
2021/01/12 12:01:51;;;;;;;27.88;10.38;;;0.30;73.10;;;;;;4993722;28;20019;-79
2021/01/12 12:04:17;;;;;;;28.55;11.57;;;0.20;71.60;;;;;;4993502;28;20117;-79
2021/01/12 12:06:47;;;;;;;20.90;9.18;;;0.30;73.60;;;;;;4992873;28;20026;-78
2021/01/12 12:09:13;;;;;;;23.45;10.38;;;0.20;72.00;;;;;;4990239;28;20431;-79
2021/01/12 12:11:39;;;;;;;19.05;10.57;;;0.30;72.00;;;;;;4993210;28;20030;-78
2021/01/12 12:14:07;;;;;;;23.38;10.93;;;0.20;72.70;;;;;;4993696;28;20023;-79
2021/01/12 12:16:32;;;;;;;18.73;10.45;;;0.20;72.60;;;;;;4993837;28;20069;-79
2021/01/12 12:18:59;;;;;;;20.42;9.43;;;0.20;72.40;;;;;;4993942;28;20077;-78
2021/01/12 12:21:25;;;;;;;27.88;11.65;;;0.20;73.20;;;;;;4993074;28;20121;-79
2021/01/12 12:23:50;;;;;;;25.52;11.98;;;0.20;72.20;;;;;;5009260;28;20022;-79
2021/01/12 12:26:16;;;;;;;23.77;10.38;;;0.20;71.60;;;;;;4993930;28;20139;-78